Site contains unofficial IBTrACS data. Visit the IBTrACS Website to access archived data.

1869 Tropical Storm NOT_NAMED (1869222N30285)


IBTrACS version v04r00. Visit IBTrACS website for data access.
Please direct all questions to the IBTrACS Q and A forum

Storm track - Intensity - Wind Radii - Intensity Data - Source Data - All data

Summary Information

Storm ID 1869222N30285
Start Aug 9 12Z
Max Intensity 50 kt (Aug 12 06Z)
End Aug 15 12Z
ATCF IDs
Track status Best track data.

Storm track plot

Map of storm track

Intensity plots

Map of storm track

Radial wind information

No radial wind information for this storm


Position and Intensity Table

BASIN ISO_TIME_________ NATURE LAT LON MLC WIND
degrees north degrees east kts
NA 1869-08-09 12:00:00 TS 29.50 -75.50 30
NA 15:00:00 TS 29.55 -75.29 30
NA 18:00:00 TS 29.60 -75.10 30
NA 21:00:00 TS 29.65 -74.94 32
NA 1869-08-10 00:00:00 TS 29.70 -74.80 35
NA 03:00:00 TS 29.76 -74.65 35
NA 06:00:00 TS 29.80 -74.50 35
NA 09:00:00 TS 29.79 -74.37 35
NA 12:00:00 TS 29.80 -74.20 35
NA 15:00:00 TS 29.89 -73.92 35
NA 18:00:00 TS 30.00 -73.60 35
NA 21:00:00 TS 30.10 -73.34 37
NA 1869-08-11 00:00:00 TS 30.20 -73.10 40
NA 03:00:00 TS 30.31 -72.86 40
NA 06:00:00 TS 30.40 -72.60 40
NA 09:00:00 TS 30.44 -72.29 40
NA 12:00:00 TS 30.50 -72.00 40
NA 15:00:00 TS 30.63 -71.79 40
NA 18:00:00 TS 30.80 -71.60 40
NA 21:00:00 TS 30.95 -71.35 42
NA 1869-08-12 00:00:00 TS 31.10 -71.10 45
NA 03:00:00 TS 31.25 -70.89 47
NA 06:00:00 TS 31.40 -70.70 50
NA 09:00:00 TS 31.55 -70.49 50
NA 12:00:00 TS 31.70 -70.30 50
NA 15:00:00 TS 31.86 -70.14 50
NA 18:00:00 TS 32.00 -70.00 50
NA 21:00:00 TS 32.10 -69.85 50
NA 1869-08-13 00:00:00 TS 32.20 -69.70 50
NA 03:00:00 TS 32.35 -69.54 50
NA 06:00:00 TS 32.50 -69.40 50
NA 09:00:00 TS 32.60 -69.29 50
NA 12:00:00 TS 32.70 -69.20 50
NA 15:00:00 TS 32.85 -69.10 50
NA 18:00:00 TS 33.00 -69.00 50
NA 21:00:00 TS 33.10 -68.90 47
NA 1869-08-14 00:00:00 TS 33.20 -68.80 45
NA 03:00:00 TS 33.35 -68.70 45
NA 06:00:00 TS 33.50 -68.60 45
NA 09:00:00 TS 33.60 -68.50 42
NA 12:00:00 TS 33.70 -68.40 40
NA 15:00:00 TS 33.85 -68.30 40
NA 18:00:00 TS 34.00 -68.20 40
NA 21:00:00 TS 34.11 -68.11 40
NA 1869-08-15 00:00:00 TS 34.20 -68.00 40
NA 03:00:00 TS 34.30 -67.85 37
NA 06:00:00 TS 34.40 -67.70 35
NA 09:00:00 TS 34.50 -67.59 35
NA 12:00:00 TS 34.60 -67.50 35

Source Information

Agency Information
USA
TOKYO
CMA
HKO
NEWDELHI
REUNION
BOM
NADI
WELLINGTON
DS824
TD9636
TD9635
NEUMANN
MLC

All available IBTrACS Data

SEASON BASIN SUBBASIN ISO_TIME_________ NATURE LAT LON DIST2LAND LANDFALL IFLAG USA SSHS MLC LAT MLC LON MLC CLASS MLC WIND STORM SPEED STORM DIR
Year degrees north degrees east km km 1 degrees north degrees east kts kts degrees
1869 NA NA 1869-08-09 12:00:00 TS 29.50 -75.50 498 498 _____________O -1 29.50 -75.50 TD 30 4 75
1869 NA NA 15:00:00 TS 29.55 -75.29 519 519 _____________P -1 29.55 -75.29 TD 30 4 74
1869 NA NA 18:00:00 TS 29.60 -75.10 538 538 _____________O -1 29.60 -75.10 TD 30 3 72
1869 NA NA 21:00:00 TS 29.65 -74.94 557 552 _____________P -1 29.65 -74.94 TD 32 3 69
1869 NA NA 1869-08-10 00:00:00 TS 29.70 -74.80 557 553 _____________O -1 29.70 -74.80 TS 35 3 67
1869 NA NA 03:00:00 TS 29.76 -74.65 553 553 _____________P -1 29.76 -74.65 TS 35 3 69
1869 NA NA 06:00:00 TS 29.80 -74.50 563 563 _____________O -1 29.80 -74.50 TS 35 2 82
1869 NA NA 09:00:00 TS 29.79 -74.37 569 569 _____________P -1 29.79 -74.37 TS 35 3 90
1869 NA NA 12:00:00 TS 29.80 -74.20 580 580 _____________O -1 29.80 -74.20 TS 35 4 77
1869 NA NA 15:00:00 TS 29.89 -73.92 588 586 _____________P -1 29.89 -73.92 TS 35 6 69
1869 NA NA 18:00:00 TS 30.00 -73.60 590 584 _____________O -1 30.00 -73.60 TS 35 5 67
1869 NA NA 21:00:00 TS 30.10 -73.34 594 589 _____________P -1 30.10 -73.34 TS 37 5 65
1869 NA NA 1869-08-11 00:00:00 TS 30.20 -73.10 594 589 _____________O -1 30.20 -73.10 TS 40 5 64
1869 NA NA 03:00:00 TS 30.31 -72.86 595 595 _____________P -1 30.31 -72.86 TS 40 5 65
1869 NA NA 06:00:00 TS 30.40 -72.60 602 602 _____________O -1 30.40 -72.60 TS 40 5 75
1869 NA NA 09:00:00 TS 30.44 -72.29 619 617 _____________P -1 30.44 -72.29 TS 40 5 79
1869 NA NA 12:00:00 TS 30.50 -72.00 629 627 _____________O -1 30.50 -72.00 TS 40 5 66
1869 NA NA 15:00:00 TS 30.63 -71.79 633 624 _____________P -1 30.63 -71.79 TS 40 5 49
1869 NA NA 18:00:00 TS 30.80 -71.60 630 630 _____________O -1 30.80 -71.60 TS 40 5 50
1869 NA NA 21:00:00 TS 30.95 -71.35 636 636 _____________P -1 30.95 -71.35 TS 42 5 55
1869 NA NA 1869-08-12 00:00:00 TS 31.10 -71.10 643 642 _____________O -1 31.10 -71.10 TS 45 5 52
1869 NA NA 03:00:00 TS 31.25 -70.89 649 642 _____________P -1 31.25 -70.89 TS 47 5 49
1869 NA NA 06:00:00 TS 31.40 -70.70 650 650 _____________O -1 31.40 -70.70 TS 50 5 49
1869 NA NA 09:00:00 TS 31.55 -70.49 651 651 _____________P -1 31.55 -70.49 TS 50 5 49
1869 NA NA 12:00:00 TS 31.70 -70.30 660 660 _____________O -1 31.70 -70.30 TS 50 4 44
1869 NA NA 15:00:00 TS 31.86 -70.14 660 660 _____________P -1 31.86 -70.14 TS 50 4 40
1869 NA NA 18:00:00 TS 32.00 -70.00 660 659 _____________O -1 32.00 -70.00 TS 50 3 46
1869 NA NA 21:00:00 TS 32.10 -69.85 667 660 _____________P -1 32.10 -69.85 TS 50 3 52
1869 NA NA 1869-08-13 00:00:00 TS 32.20 -69.70 667 667 _____________O -1 32.20 -69.70 TS 50 4 46
1869 NA NA 03:00:00 TS 32.35 -69.54 668 668 _____________P -1 32.35 -69.54 TS 50 4 40
1869 NA NA 06:00:00 TS 32.50 -69.40 669 669 _____________O -1 32.50 -69.40 TS 50 3 40
1869 NA NA 09:00:00 TS 32.60 -69.29 671 671 _____________P -1 32.60 -69.29 TS 50 3 40
1869 NA NA 12:00:00 TS 32.70 -69.20 673 667 _____________O -1 32.70 -69.20 TS 50 3 33
1869 NA NA 15:00:00 TS 32.85 -69.10 675 669 _____________P -1 32.85 -69.10 TS 50 3 29
1869 NA NA 18:00:00 TS 33.00 -69.00 671 671 _____________O -1 33.00 -69.00 TS 50 3 34
1869 NA NA 21:00:00 TS 33.10 -68.90 674 674 _____________P -1 33.10 -68.90 TS 47 3 40
1869 NA NA 1869-08-14 00:00:00 TS 33.20 -68.80 677 672 _____________O -1 33.20 -68.80 TS 45 3 34
1869 NA NA 03:00:00 TS 33.35 -68.70 680 676 _____________P -1 33.35 -68.70 TS 45 3 29
1869 NA NA 06:00:00 TS 33.50 -68.60 679 679 _____________O -1 33.50 -68.60 TS 45 3 34
1869 NA NA 09:00:00 TS 33.60 -68.50 683 683 _____________P -1 33.60 -68.50 TS 42 3 40
1869 NA NA 12:00:00 TS 33.70 -68.40 688 683 _____________O -1 33.70 -68.40 TS 40 3 34
1869 NA NA 15:00:00 TS 33.85 -68.30 692 688 _____________P -1 33.85 -68.30 TS 40 3 29
1869 NA NA 18:00:00 TS 34.00 -68.20 693 690 _____________O -1 34.00 -68.20 TS 40 3 31
1869 NA NA 21:00:00 TS 34.11 -68.11 698 695 _____________P -1 34.11 -68.11 TS 40 3 40
1869 NA NA 1869-08-15 00:00:00 TS 34.20 -68.00 704 704 _____________O -1 34.20 -68.00 TS 40 3 48
1869 NA NA 03:00:00 TS 34.30 -67.85 710 710 _____________P -1 34.30 -67.85 TS 37 3 51
1869 NA NA 06:00:00 TS 34.40 -67.70 724 724 _____________O -1 34.40 -67.70 TS 35 3 48
1869 NA NA 09:00:00 TS 34.50 -67.59 730 730 _____________P -1 34.50 -67.59 TS 35 3 40
1869 NA NA 12:00:00 TS 34.60 -67.50 737 _____________O -1 34.60 -67.50 TS 35 2 33